Time;durP1;ratioP1;P1;durP2;ratioP2;P2;SDS_P1;SDS_P2;PMS_P1;PMS_P2;Temp;Humidity;BMP_temperature;BMP_pressure;BME280_temperature;BME280_humidity;BME280_pressure;Samples;Min_cycle;Max_cycle;Signal;HPM_P1;HPM_P2
2021/06/23 00:00:05;;;;;;;10.70;6.20;;;;;;;;;;2056761;28;20214;-64
2021/06/23 00:01:12;;;;;;;7.85;5.82;;;;;;;;;;2065324;28;20639;-65
2021/06/23 00:02:12;;;;;;;10.80;6.57;;;;;;;;;;2065870;28;20182;-64
2021/06/23 00:03:13;;;;;;;10.25;6.22;;;;;;;;;;2065510;28;20196;-67
2021/06/23 00:04:13;;;;;;;9.95;5.63;;;;;;;;;;2066582;28;20265;-63
2021/06/23 00:05:14;;;;;;;6.75;5.75;;;;;;;;;;2065772;28;20182;-64
2021/06/23 00:06:14;;;;;;;10.48;6.30;;;;;;;;;;2066198;28;20201;-65
2021/06/23 00:07:14;;;;;;;13.07;6.07;;;;;;;;;;2065389;28;20208;-66
2021/06/23 00:08:15;;;;;;;9.82;6.20;;;;;;;;;;2066043;28;20174;-64
2021/06/23 00:09:15;;;;;;;11.70;5.65;;;;;;;;;;2065223;28;20177;-64
2021/06/23 00:10:15;;;;;;;8.85;6.50;;;;;;;;;;2065258;28;20189;-65
2021/06/23 00:11:16;;;;;;;12.93;6.07;;;;;;;;;;2065807;28;20174;-64
2021/06/23 00:12:16;;;;;;;10.70;6.10;;;;;;;;;;2064255;28;20181;-64
2021/06/23 00:13:18;;;;;;;9.93;6.28;;;;;;;;;;2065491;28;20170;-63
2021/06/23 00:14:19;;;;;;;8.05;5.95;;;;;;;;;;2065296;28;20177;-64
2021/06/23 00:15:19;;;;;;;12.68;6.00;;;;;;;;;;2064291;28;20629;-63
2021/06/23 00:16:19;;;;;;;11.10;5.97;;;;;;;;;;2065385;28;20544;-63
2021/06/23 00:17:20;;;;;;;10.85;6.10;;;;;;;;;;2065396;28;20182;-63
2021/06/23 00:18:20;;;;;;;8.63;5.80;;;;;;;;;;2062611;28;20174;-64
2021/06/23 00:19:22;;;;;;;11.15;6.15;;;;;;;;;;2069492;28;20740;-63
2021/06/23 00:20:24;;;;;;;12.40;6.82;;;;;;;;;;2069723;28;20727;-63
2021/06/23 00:21:24;;;;;;;8.25;6.13;;;;;;;;;;2072163;28;20175;-63
2021/06/23 00:22:25;;;;;;;8.73;6.10;;;;;;;;;;2070264;28;20180;-63
2021/06/23 00:23:25;;;;;;;10.20;6.55;;;;;;;;;;2067232;28;20185;-64
2021/06/23 00:24:25;;;;;;;10.65;6.65;;;;;;;;;;2069615;28;20172;-63
2021/06/23 00:25:25;;;;;;;12.18;6.63;;;;;;;;;;2067663;28;20231;-63
2021/06/23 00:26:26;;;;;;;11.25;6.47;;;;;;;;;;2071599;28;20195;-63
2021/06/23 00:27:26;;;;;;;11.18;6.53;;;;;;;;;;2071601;28;20292;-63
2021/06/23 00:28:26;;;;;;;15.30;7.13;;;;;;;;;;2067259;28;20641;-64
2021/06/23 00:29:27;;;;;;;8.80;6.63;;;;;;;;;;2070879;28;20195;-65
2021/06/23 00:30:27;;;;;;;12.00;6.80;;;;;;;;;;2068647;28;20224;-63
2021/06/23 00:31:28;;;;;;;11.52;7.00;;;;;;;;;;2069091;28;20232;-63
2021/06/23 00:32:28;;;;;;;12.02;7.25;;;;;;;;;;2067446;28;20261;-63
2021/06/23 00:33:31;;;;;;;13.18;6.85;;;;;;;;;;2070522;28;20205;-66
2021/06/23 00:34:31;;;;;;;11.10;6.70;;;;;;;;;;2071064;28;20587;-63
2021/06/23 00:35:32;;;;;;;11.13;6.97;;;;;;;;;;2067043;28;20201;-63
2021/06/23 00:36:32;;;;;;;7.53;6.53;;;;;;;;;;2069989;28;20194;-63
2021/06/23 00:37:32;;;;;;;11.48;7.50;;;;;;;;;;2071267;28;20211;-63
2021/06/23 00:38:33;;;;;;;12.18;7.78;;;;;;;;;;2062092;28;20184;-63
2021/06/23 00:39:33;;;;;;;9.93;7.35;;;;;;;;;;2070957;28;20173;-64
2021/06/23 00:40:34;;;;;;;13.70;7.25;;;;;;;;;;2065793;28;20221;-64
2021/06/23 00:41:35;;;;;;;10.23;6.30;;;;;;;;;;2056803;28;20229;-63
2021/06/23 00:42:36;;;;;;;9.70;6.68;;;;;;;;;;2064129;28;20208;-64
2021/06/23 00:43:36;;;;;;;11.45;7.25;;;;;;;;;;2066353;28;20600;-63
2021/06/23 00:44:38;;;;;;;11.23;6.57;;;;;;;;;;2066486;28;20189;-63
2021/06/23 00:45:39;;;;;;;7.63;6.60;;;;;;;;;;2073148;28;20540;-64
2021/06/23 00:46:42;;;;;;;8.38;6.78;;;;;;;;;;2056996;28;20188;-64
2021/06/23 00:47:44;;;;;;;12.38;7.30;;;;;;;;;;2064822;28;20188;-64
2021/06/23 00:48:45;;;;;;;10.15;7.25;;;;;;;;;;2065463;28;20177;-64
2021/06/23 00:49:46;;;;;;;11.43;6.88;;;;;;;;;;2073175;28;20172;-64
2021/06/23 00:51:16;;;;;;;7.55;6.10;;;;;;;;;;2068260;28;20177;-63
2021/06/23 00:52:35;;;;;;;11.05;7.18;;;;;;;;;;2058491;28;20863;-64
2021/06/23 00:53:50;;;;;;;11.32;6.57;;;;;;;;;;2058391;28;20165;-63
2021/06/23 00:54:51;;;;;;;13.85;7.57;;;;;;;;;;2065562;28;20189;-63
2021/06/23 00:55:57;;;;;;;17.23;7.28;;;;;;;;;;2062541;28;20154;-64
2021/06/23 00:57:03;;;;;;;9.98;6.50;;;;;;;;;;2065524;28;20184;-64
2021/06/23 00:58:04;;;;;;;10.75;6.47;;;;;;;;;;2070421;28;20157;-64
2021/06/23 00:59:05;;;;;;;11.48;6.75;;;;;;;;;;2067139;28;20169;-64
2021/06/23 01:00:07;;;;;;;12.98;6.38;;;;;;;;;;2064066;28;20184;-64
2021/06/23 01:01:07;;;;;;;8.25;6.53;;;;;;;;;;2066560;28;20169;-63
2021/06/23 01:02:08;;;;;;;12.35;7.70;;;;;;;;;;2064193;28;20207;-64
2021/06/23 01:03:09;;;;;;;10.90;7.00;;;;;;;;;;2069365;28;20201;-64
2021/06/23 01:04:12;;;;;;;14.93;6.97;;;;;;;;;;2060840;28;20166;-65
2021/06/23 01:05:17;;;;;;;9.77;6.50;;;;;;;;;;2064394;28;20211;-65
2021/06/23 01:06:18;;;;;;;11.18;5.53;;;;;;;;;;2053163;28;20182;-64
2021/06/23 01:07:19;;;;;;;10.32;6.43;;;;;;;;;;2060399;28;20196;-64
2021/06/23 01:08:24;;;;;;;12.07;6.82;;;;;;;;;;2067937;28;20185;-63
2021/06/23 01:09:25;;;;;;;11.20;6.55;;;;;;;;;;2064459;28;20170;-64
2021/06/23 01:10:29;;;;;;;13.38;6.97;;;;;;;;;;2070621;28;20680;-63
2021/06/23 01:11:29;;;;;;;10.93;6.43;;;;;;;;;;2066144;28;20686;-63
2021/06/23 01:12:30;;;;;;;11.63;6.72;;;;;;;;;;2070873;28;20173;-63
2021/06/23 01:13:34;;;;;;;14.25;6.65;;;;;;;;;;2071548;28;20223;-63
2021/06/23 01:14:36;;;;;;;8.27;6.05;;;;;;;;;;2066416;28;20174;-64
2021/06/23 01:15:38;;;;;;;11.75;6.57;;;;;;;;;;2063537;28;20174;-64
2021/06/23 01:16:39;;;;;;;9.68;6.05;;;;;;;;;;2071299;28;20188;-64
2021/06/23 01:17:41;;;;;;;10.77;6.78;;;;;;;;;;2072769;28;20172;-63
2021/06/23 01:18:41;;;;;;;10.63;6.80;;;;;;;;;;2065514;28;20786;-63
2021/06/23 01:19:43;;;;;;;11.20;6.13;;;;;;;;;;2069417;28;20173;-64
2021/06/23 01:20:46;;;;;;;10.63;6.07;;;;;;;;;;2064574;28;20224;-63
2021/06/23 01:21:46;;;;;;;9.20;5.60;;;;;;;;;;2068331;28;20560;-63
2021/06/23 01:22:46;;;;;;;11.60;6.35;;;;;;;;;;2073687;28;20211;-63
2021/06/23 01:23:46;;;;;;;9.82;6.05;;;;;;;;;;2065259;28;20654;-64
2021/06/23 01:24:47;;;;;;;14.65;6.55;;;;;;;;;;2068610;28;20659;-63
2021/06/23 01:25:48;;;;;;;9.98;6.53;;;;;;;;;;2072942;28;20255;-63
2021/06/23 01:26:48;;;;;;;9.13;5.75;;;;;;;;;;2063451;28;20178;-63
2021/06/23 01:27:49;;;;;;;11.85;6.03;;;;;;;;;;2071783;28;20264;-63
2021/06/23 01:28:50;;;;;;;9.18;6.13;;;;;;;;;;2065133;28;20185;-63
2021/06/23 01:29:52;;;;;;;10.23;6.25;;;;;;;;;;2063312;28;20176;-63
2021/06/23 01:31:17;;;;;;;7.70;6.18;;;;;;;;;;2049424;28;20213;-66
2021/06/23 01:32:20;;;;;;;10.73;6.22;;;;;;;;;;2056460;28;20232;-63
2021/06/23 01:33:20;;;;;;;12.05;6.10;;;;;;;;;;2068626;28;20234;-63
2021/06/23 01:34:21;;;;;;;7.00;6.28;;;;;;;;;;2066665;28;20558;-63
2021/06/23 01:35:21;;;;;;;12.05;5.95;;;;;;;;;;2067514;28;20181;-63
2021/06/23 01:36:22;;;;;;;8.07;5.18;;;;;;;;;;2069301;28;20997;-64
2021/06/23 01:37:24;;;;;;;11.13;5.43;;;;;;;;;;2071373;28;20183;-64
2021/06/23 01:38:25;;;;;;;7.05;5.03;;;;;;;;;;2066819;28;20162;-62
2021/06/23 01:39:25;;;;;;;10.40;6.22;;;;;;;;;;2067121;28;20205;-64
2021/06/23 01:40:26;;;;;;;8.10;5.30;;;;;;;;;;2066231;28;20205;-64
2021/06/23 01:41:27;;;;;;;9.07;5.60;;;;;;;;;;2067653;28;20204;-63
2021/06/23 01:42:27;;;;;;;8.20;6.00;;;;;;;;;;2058440;28;20166;-63
2021/06/23 01:43:28;;;;;;;8.48;5.43;;;;;;;;;;2062702;28;20235;-64
2021/06/23 01:44:32;;;;;;;9.55;4.82;;;;;;;;;;2063098;28;20177;-65
2021/06/23 01:45:33;;;;;;;12.15;5.65;;;;;;;;;;2065638;28;20162;-63
2021/06/23 01:46:33;;;;;;;6.75;5.68;;;;;;;;;;2064788;28;20220;-64
2021/06/23 01:47:34;;;;;;;8.50;5.30;;;;;;;;;;2066709;28;20173;-64
2021/06/23 01:48:34;;;;;;;7.10;5.32;;;;;;;;;;2065984;28;20583;-64
2021/06/23 01:49:34;;;;;;;15.57;5.72;;;;;;;;;;2065072;28;20176;-64
2021/06/23 01:50:35;;;;;;;13.02;5.88;;;;;;;;;;2065552;28;20224;-64
2021/06/23 01:51:36;;;;;;;6.88;5.03;;;;;;;;;;2065673;28;20185;-63
2021/06/23 01:52:37;;;;;;;10.05;4.93;;;;;;;;;;2058610;28;20184;-65
2021/06/23 01:53:39;;;;;;;6.85;5.35;;;;;;;;;;2057793;28;20170;-64
2021/06/23 01:54:41;;;;;;;12.68;5.18;;;;;;;;;;2066490;28;20166;-65
2021/06/23 01:55:41;;;;;;;10.02;5.03;;;;;;;;;;2066106;28;20181;-64
2021/06/23 01:56:42;;;;;;;10.55;5.25;;;;;;;;;;2065390;28;20170;-65
2021/06/23 01:57:43;;;;;;;11.55;5.20;;;;;;;;;;2056785;28;20256;-63
2021/06/23 01:58:43;;;;;;;8.80;5.18;;;;;;;;;;2056896;28;20198;-64
2021/06/23 02:00:05;;;;;;;8.25;4.97;;;;;;;;;;2050988;28;20190;-64
2021/06/23 02:01:27;;;;;;;7.93;5.35;;;;;;;;;;2064739;28;20170;-63
2021/06/23 02:02:28;;;;;;;7.45;5.32;;;;;;;;;;2065694;28;20372;-65
2021/06/23 02:03:55;;;;;;;9.32;5.40;;;;;;;;;;2064781;28;20174;-64
2021/06/23 02:05:12;;;;;;;8.10;5.25;;;;;;;;;;2058935;28;20643;-65
2021/06/23 02:06:27;;;;;;;8.45;5.07;;;;;;;;;;2058485;28;20180;-64
2021/06/23 02:07:39;;;;;;;6.25;4.70;;;;;;;;;;2064812;28;20188;-64
2021/06/23 02:08:50;;;;;;;10.02;5.30;;;;;;;;;;2058670;28;20166;-64
2021/06/23 02:10:01;;;;;;;7.85;5.13;;;;;;;;;;2057845;28;20698;-64
2021/06/23 02:11:36;;;;;;;9.38;4.82;;;;;;;;;;2064725;28;20166;-64
2021/06/23 02:12:55;;;;;;;10.05;5.43;;;;;;;;;;2064789;28;20165;-65
2021/06/23 02:13:58;;;;;;;11.27;5.63;;;;;;;;;;2064795;28;20170;-63
2021/06/23 02:15:13;;;;;;;15.52;5.35;;;;;;;;;;2065444;28;20146;-64
2021/06/23 02:16:39;;;;;;;6.90;5.53;;;;;;;;;;2065339;28;20181;-64
2021/06/23 02:17:44;;;;;;;9.35;5.40;;;;;;;;;;2064895;28;20216;-63
2021/06/23 02:19:10;;;;;;;9.00;5.45;;;;;;;;;;2062971;28;20624;-64
2021/06/23 02:20:30;;;;;;;10.98;5.15;;;;;;;;;;2064805;28;20188;-65
2021/06/23 02:21:39;;;;;;;9.55;5.40;;;;;;;;;;2059934;28;20209;-64
2021/06/23 02:22:41;;;;;;;8.63;5.20;;;;;;;;;;2064699;28;20252;-65
2021/06/23 02:23:48;;;;;;;7.43;5.93;;;;;;;;;;2065588;28;20158;-65
2021/06/23 02:24:53;;;;;;;13.70;5.03;;;;;;;;;;2064694;28;20177;-63
2021/06/23 02:26:01;;;;;;;6.28;5.30;;;;;;;;;;2064969;28;20181;-64
2021/06/23 02:27:01;;;;;;;8.77;5.30;;;;;;;;;;2065246;28;20166;-65
2021/06/23 02:28:07;;;;;;;11.02;5.00;;;;;;;;;;2064691;28;20174;-64
2021/06/23 02:29:08;;;;;;;7.53;5.32;;;;;;;;;;2056426;28;20182;-65
2021/06/23 02:30:11;;;;;;;8.52;5.10;;;;;;;;;;2064701;28;20284;-64
2021/06/23 02:31:12;;;;;;;14.23;6.07;;;;;;;;;;2064079;28;20177;-63
2021/06/23 02:32:24;;;;;;;14.18;7.07;;;;;;;;;;2064858;28;20157;-63
2021/06/23 02:33:27;;;;;;;11.93;5.32;;;;;;;;;;2064598;28;20174;-64
2021/06/23 02:34:32;;;;;;;7.45;4.68;;;;;;;;;;2057154;28;20170;-64
2021/06/23 02:35:44;;;;;;;9.10;5.90;;;;;;;;;;2064831;28;20204;-65
2021/06/23 02:37:00;;;;;;;11.80;4.57;;;;;;;;;;2065135;28;20161;-63
2021/06/23 02:38:00;;;;;;;13.40;4.63;;;;;;;;;;2064775;28;20165;-63
2021/06/23 02:39:02;;;;;;;10.10;4.90;;;;;;;;;;2056272;28;20265;-63
2021/06/23 02:40:04;;;;;;;9.13;4.68;;;;;;;;;;2056696;28;20269;-64
2021/06/23 02:41:04;;;;;;;10.43;4.97;;;;;;;;;;2055525;28;20181;-63
2021/06/23 02:42:08;;;;;;;9.68;4.93;;;;;;;;;;2064540;28;20201;-63
2021/06/23 02:43:09;;;;;;;9.38;4.85;;;;;;;;;;2065114;28;20209;-62
2021/06/23 02:44:10;;;;;;;6.05;4.40;;;;;;;;;;2064893;28;20678;-62
2021/06/23 02:45:12;;;;;;;10.40;4.90;;;;;;;;;;2056619;28;20256;-62
2021/06/23 02:46:12;;;;;;;5.90;4.40;;;;;;;;;;2056964;28;20599;-63
2021/06/23 02:47:17;;;;;;;6.35;4.43;;;;;;;;;;2065237;28;20177;-63
2021/06/23 02:48:32;;;;;;;11.25;4.80;;;;;;;;;;2065132;28;20176;-62
2021/06/23 02:49:44;;;;;;;14.52;5.40;;;;;;;;;;2065161;28;20185;-62
2021/06/23 02:50:56;;;;;;;7.60;4.88;;;;;;;;;;2064598;28;20252;-63
2021/06/23 02:51:59;;;;;;;8.27;4.70;;;;;;;;;;2064245;28;20693;-62
2021/06/23 02:53:00;;;;;;;12.02;4.75;;;;;;;;;;2065284;28;20170;-64
2021/06/23 02:54:00;;;;;;;9.93;5.00;;;;;;;;;;2065187;28;20166;-63
2021/06/23 02:55:19;;;;;;;10.18;5.00;;;;;;;;;;2064564;28;20164;-64
2021/06/23 02:56:20;;;;;;;8.38;4.80;;;;;;;;;;2057097;28;20221;-64
2021/06/23 02:57:22;;;;;;;10.07;5.38;;;;;;;;;;2064618;28;20161;-63
2021/06/23 02:58:23;;;;;;;8.85;5.05;;;;;;;;;;2064900;28;20165;-63
2021/06/23 02:59:26;;;;;;;7.82;4.15;;;;;;;;;;2064528;28;20197;-63
2021/06/23 03:00:27;;;;;;;6.93;4.75;;;;;;;;;;2048355;28;20178;-63
2021/06/23 03:01:28;;;;;;;9.68;4.65;;;;;;;;;;2047957;28;20221;-63
2021/06/23 03:02:29;;;;;;;5.22;4.20;;;;;;;;;;2056582;28;20167;-63
2021/06/23 03:03:29;;;;;;;12.50;5.28;;;;;;;;;;2065210;28;20684;-63
2021/06/23 03:04:32;;;;;;;6.95;4.63;;;;;;;;;;2064406;28;20188;-64
2021/06/23 03:05:44;;;;;;;5.72;4.43;;;;;;;;;;2058078;28;20205;-64
2021/06/23 03:06:45;;;;;;;8.50;4.38;;;;;;;;;;2056326;28;20264;-63
2021/06/23 03:07:46;;;;;;;8.57;4.20;;;;;;;;;;2056486;28;20532;-63
2021/06/23 03:08:53;;;;;;;6.93;4.40;;;;;;;;;;2057001;28;20197;-63
2021/06/23 03:10:21;;;;;;;12.07;4.55;;;;;;;;;;2059922;28;20173;-63
2021/06/23 03:11:30;;;;;;;12.13;4.75;;;;;;;;;;2064086;28;20193;-63
2021/06/23 03:12:40;;;;;;;6.18;4.35;;;;;;;;;;2064320;28;20172;-63
2021/06/23 03:14:04;;;;;;;8.60;4.72;;;;;;;;;;2059424;28;20185;-64
2021/06/23 03:15:13;;;;;;;7.15;4.20;;;;;;;;;;2065140;28;20166;-63
2021/06/23 03:16:14;;;;;;;7.35;4.20;;;;;;;;;;2064580;28;20165;-64
2021/06/23 03:17:14;;;;;;;8.45;4.45;;;;;;;;;;2064394;28;20197;-64
2021/06/23 03:18:15;;;;;;;9.27;4.53;;;;;;;;;;2064397;28;20182;-62
2021/06/23 03:19:16;;;;;;;6.63;4.00;;;;;;;;;;2056336;28;20628;-62
2021/06/23 03:20:18;;;;;;;8.43;4.78;;;;;;;;;;2064513;28;20615;-62
2021/06/23 03:21:18;;;;;;;5.07;4.00;;;;;;;;;;2064503;28;20166;-62
2021/06/23 03:22:21;;;;;;;7.18;4.70;;;;;;;;;;2065005;28;20599;-63
2021/06/23 03:23:21;;;;;;;9.05;4.57;;;;;;;;;;2064327;28;20177;-64
2021/06/23 03:24:22;;;;;;;9.48;4.72;;;;;;;;;;2056367;28;20178;-63
2021/06/23 03:25:29;;;;;;;5.00;4.40;;;;;;;;;;2064517;28;20150;-63
2021/06/23 03:26:30;;;;;;;6.05;4.47;;;;;;;;;;2064445;28;20181;-63
2021/06/23 03:27:32;;;;;;;6.18;4.22;;;;;;;;;;2065024;28;20232;-64
2021/06/23 03:28:33;;;;;;;9.35;4.25;;;;;;;;;;2063319;28;20603;-62
2021/06/23 03:29:35;;;;;;;10.48;4.32;;;;;;;;;;2069732;28;20203;-62
2021/06/23 03:30:36;;;;;;;7.43;4.75;;;;;;;;;;2064754;28;20208;-62
2021/06/23 03:31:37;;;;;;;8.38;4.55;;;;;;;;;;2070907;28;20196;-63
2021/06/23 03:32:38;;;;;;;11.70;4.35;;;;;;;;;;2056345;28;20182;-63
2021/06/23 03:33:41;;;;;;;7.18;4.72;;;;;;;;;;2058090;28;20202;-63
2021/06/23 03:35:00;;;;;;;6.43;4.35;;;;;;;;;;2062009;28;20256;-63
2021/06/23 03:36:01;;;;;;;8.68;5.22;;;;;;;;;;2070828;28;20181;-64
2021/06/23 03:37:01;;;;;;;6.97;4.60;;;;;;;;;;2064518;28;20182;-65
2021/06/23 03:38:04;;;;;;;7.40;4.47;;;;;;;;;;2071425;28;20173;-64
2021/06/23 03:39:05;;;;;;;10.52;4.78;;;;;;;;;;2060526;28;20585;-64
2021/06/23 03:40:16;;;;;;;7.88;4.65;;;;;;;;;;2064229;28;20262;-64
2021/06/23 03:41:17;;;;;;;7.05;4.10;;;;;;;;;;2059721;28;20638;-63
2021/06/23 03:42:18;;;;;;;9.13;4.60;;;;;;;;;;2050630;28;20215;-62
2021/06/23 03:43:22;;;;;;;9.25;4.43;;;;;;;;;;2053739;28;20165;-63
2021/06/23 03:44:26;;;;;;;6.45;5.18;;;;;;;;;;2062745;28;20216;-63
2021/06/23 03:45:26;;;;;;;6.43;4.60;;;;;;;;;;2068265;28;20165;-63
2021/06/23 03:46:27;;;;;;;12.30;4.47;;;;;;;;;;2064225;28;20170;-63
2021/06/23 03:47:27;;;;;;;8.13;4.50;;;;;;;;;;2068442;28;20173;-64
2021/06/23 03:48:28;;;;;;;8.00;4.35;;;;;;;;;;2069243;28;20177;-64
2021/06/23 03:49:35;;;;;;;10.20;4.47;;;;;;;;;;2071020;28;20541;-64
2021/06/23 03:50:35;;;;;;;10.95;4.90;;;;;;;;;;2064967;28;20280;-64
2021/06/23 03:51:36;;;;;;;8.02;4.43;;;;;;;;;;2069726;28;20188;-64
2021/06/23 03:52:37;;;;;;;9.02;5.00;;;;;;;;;;2065077;28;20182;-63
2021/06/23 03:53:37;;;;;;;12.93;5.25;;;;;;;;;;2072138;28;20458;-63
2021/06/23 03:54:41;;;;;;;10.20;4.53;;;;;;;;;;2057777;28;20241;-64
2021/06/23 03:55:41;;;;;;;9.43;4.50;;;;;;;;;;2073535;28;20636;-64
2021/06/23 03:56:42;;;;;;;8.40;4.70;;;;;;;;;;2065829;28;20181;-63
2021/06/23 03:57:42;;;;;;;10.63;5.60;;;;;;;;;;2074216;28;20183;-64
2021/06/23 03:58:42;;;;;;;9.00;4.95;;;;;;;;;;2064834;28;20177;-63
2021/06/23 03:59:43;;;;;;;13.30;5.40;;;;;;;;;;2073236;28;20635;-63
2021/06/23 04:00:44;;;;;;;9.80;4.75;;;;;;;;;;2064468;28;20184;-62
2021/06/23 04:02:10;;;;;;;10.07;4.85;;;;;;;;;;2071259;23;20960;-61
2021/06/23 04:03:10;;;;;;;7.95;4.60;;;;;;;;;;2071796;28;20184;-58
2021/06/23 04:04:28;;;;;;;10.32;5.20;;;;;;;;;;2072358;28;20172;-58
2021/06/23 04:05:42;;;;;;;8.38;4.85;;;;;;;;;;2079674;28;20171;-56
2021/06/23 04:06:43;;;;;;;10.50;4.80;;;;;;;;;;2071603;28;20169;-55
2021/06/23 04:07:46;;;;;;;12.25;5.43;;;;;;;;;;2060482;28;20174;-57
2021/06/23 04:08:46;;;;;;;7.85;4.63;;;;;;;;;;2069858;28;20727;-58
2021/06/23 04:09:47;;;;;;;7.13;4.68;;;;;;;;;;2070594;28;20181;-52
2021/06/23 04:10:58;;;;;;;12.70;5.30;;;;;;;;;;2063310;28;20193;-60
2021/06/23 04:11:59;;;;;;;8.55;5.20;;;;;;;;;;2065780;28;20209;-58
2021/06/23 04:13:00;;;;;;;9.52;4.68;;;;;;;;;;2065283;28;20197;-59
2021/06/23 04:14:01;;;;;;;9.10;4.63;;;;;;;;;;2064854;28;20240;-57
2021/06/23 04:15:03;;;;;;;9.82;5.03;;;;;;;;;;2072202;28;20200;-55
2021/06/23 04:16:04;;;;;;;7.05;4.60;;;;;;;;;;2070845;28;20546;-56
2021/06/23 04:17:04;;;;;;;8.10;4.95;;;;;;;;;;2064691;28;20174;-57
2021/06/23 04:18:05;;;;;;;10.77;5.13;;;;;;;;;;2061001;28;20178;-59
2021/06/23 04:19:05;;;;;;;10.68;5.22;;;;;;;;;;2065137;28;20178;-55
2021/06/23 04:20:10;;;;;;;11.45;5.03;;;;;;;;;;2065376;28;20176;-56
2021/06/23 04:21:23;;;;;;;7.90;4.45;;;;;;;;;;2064279;28;20181;-60
2021/06/23 04:22:26;;;;;;;9.20;5.10;;;;;;;;;;2063640;28;20224;-59
2021/06/23 04:23:34;;;;;;;10.80;5.07;;;;;;;;;;2063058;28;20186;-58
2021/06/23 04:24:34;;;;;;;8.60;4.65;;;;;;;;;;2071750;28;20173;-57
2021/06/23 04:25:37;;;;;;;11.40;5.70;;;;;;;;;;2071725;28;20184;-57
2021/06/23 04:26:38;;;;;;;8.48;4.93;;;;;;;;;;2063079;28;20206;-61
2021/06/23 04:27:39;;;;;;;7.65;4.63;;;;;;;;;;2071926;28;20209;-61
2021/06/23 04:28:40;;;;;;;10.80;5.18;;;;;;;;;;2072780;28;20173;-59
2021/06/23 04:29:41;;;;;;;9.63;5.18;;;;;;;;;;2074197;28;20670;-61
2021/06/23 04:30:41;;;;;;;13.95;6.70;;;;;;;;;;2069670;28;20202;-58
2021/06/23 04:31:42;;;;;;;11.73;5.65;;;;;;;;;;2067373;28;20173;-58
2021/06/23 04:32:42;;;;;;;10.93;5.13;;;;;;;;;;2068405;28;20162;-57
2021/06/23 04:33:52;;;;;;;9.73;5.43;;;;;;;;;;2064762;28;20174;-58
2021/06/23 04:34:52;;;;;;;12.18;4.97;;;;;;;;;;2055838;28;20179;-58
2021/06/23 04:36:03;;;;;;;9.02;4.70;;;;;;;;;;2057861;28;20154;-54
2021/06/23 04:37:04;;;;;;;6.25;4.93;;;;;;;;;;2057848;28;20189;-58
2021/06/23 04:38:04;;;;;;;11.60;4.90;;;;;;;;;;2064419;28;20181;-57
2021/06/23 04:39:05;;;;;;;7.70;4.80;;;;;;;;;;2067498;28;20176;-56
2021/06/23 04:40:13;;;;;;;6.93;4.57;;;;;;;;;;2064457;28;20662;-58
2021/06/23 04:41:15;;;;;;;8.90;4.95;;;;;;;;;;2064100;28;20188;-57
2021/06/23 04:42:17;;;;;;;8.43;4.85;;;;;;;;;;2064374;28;20193;-55
2021/06/23 04:43:20;;;;;;;10.75;5.57;;;;;;;;;;2064099;28;20177;-54
2021/06/23 04:44:21;;;;;;;10.70;5.10;;;;;;;;;;2064494;28;20196;-56
2021/06/23 04:45:21;;;;;;;7.13;4.75;;;;;;;;;;2062160;28;20576;-56
2021/06/23 04:46:32;;;;;;;14.00;6.25;;;;;;;;;;2061381;28;20233;-58
2021/06/23 04:47:33;;;;;;;11.25;6.97;;;;;;;;;;2059707;28;20177;-57
2021/06/23 04:48:34;;;;;;;8.80;4.72;;;;;;;;;;2065481;28;20174;-56
2021/06/23 04:49:37;;;;;;;8.07;5.07;;;;;;;;;;2064855;28;20312;-56
2021/06/23 04:50:52;;;;;;;17.05;9.93;;;;;;;;;;2063568;28;20223;-57
2021/06/23 04:51:56;;;;;;;9.02;5.47;;;;;;;;;;2063056;28;20189;-55
2021/06/23 04:52:57;;;;;;;19.25;13.13;;;;;;;;;;2066773;28;20181;-58
2021/06/23 04:53:57;;;;;;;22.40;13.77;;;;;;;;;;2065497;28;20221;-56
2021/06/23 04:54:58;;;;;;;9.93;4.93;;;;;;;;;;2073213;28;20165;-56
2021/06/23 04:55:59;;;;;;;13.50;6.47;;;;;;;;;;2072425;28;20205;-52
2021/06/23 04:57:04;;;;;;;15.27;9.80;;;;;;;;;;2064907;28;20301;-55
2021/06/23 04:58:04;;;;;;;8.77;5.85;;;;;;;;;;2064111;28;20200;-56
2021/06/23 04:59:05;;;;;;;9.23;5.50;;;;;;;;;;2067913;28;20161;-61
2021/06/23 05:00:06;;;;;;;8.90;6.63;;;;;;;;;;2063582;28;20550;-57
2021/06/23 05:01:08;;;;;;;17.67;7.53;;;;;;;;;;2056649;28;20178;-57
2021/06/23 05:02:16;;;;;;;11.48;8.07;;;;;;;;;;2057176;28;20737;-56
2021/06/23 05:03:20;;;;;;;7.13;5.32;;;;;;;;;;2065025;28;20173;-56
2021/06/23 05:04:20;;;;;;;8.05;4.97;;;;;;;;;;2069167;28;20212;-56
2021/06/23 05:05:21;;;;;;;7.63;5.10;;;;;;;;;;2068729;28;20264;-56
2021/06/23 05:06:21;;;;;;;7.50;5.30;;;;;;;;;;2067521;28;20177;-56
2021/06/23 05:07:22;;;;;;;8.77;4.88;;;;;;;;;;2068225;28;20729;-57
2021/06/23 05:08:22;;;;;;;7.57;4.60;;;;;;;;;;2067810;28;20173;-60
2021/06/23 05:09:22;;;;;;;7.82;4.80;;;;;;;;;;2067829;28;20193;-59
2021/06/23 05:10:22;;;;;;;5.90;4.70;;;;;;;;;;2066179;28;20181;-57
2021/06/23 05:11:23;;;;;;;10.75;5.65;;;;;;;;;;2068337;28;20240;-57
2021/06/23 05:12:27;;;;;;;8.90;5.40;;;;;;;;;;2068082;28;20590;-54
2021/06/23 05:13:27;;;;;;;7.85;4.70;;;;;;;;;;2069591;28;20169;-57
2021/06/23 05:14:27;;;;;;;9.98;5.18;;;;;;;;;;2068396;28;20577;-55
2021/06/23 05:15:28;;;;;;;12.82;4.88;;;;;;;;;;2068179;28;20816;-53
2021/06/23 05:16:29;;;;;;;11.25;4.70;;;;;;;;;;2071576;28;20181;-55
2021/06/23 05:17:29;;;;;;;10.20;5.15;;;;;;;;;;2066828;28;20174;-57
2021/06/23 05:18:30;;;;;;;9.23;4.60;;;;;;;;;;2071867;28;20547;-57
2021/06/23 05:19:31;;;;;;;7.10;4.57;;;;;;;;;;2063323;28;20182;-57
2021/06/23 05:20:31;;;;;;;9.40;4.55;;;;;;;;;;2063193;28;20212;-57
2021/06/23 05:21:32;;;;;;;9.32;4.60;;;;;;;;;;2067876;28;20170;-57
2021/06/23 05:22:32;;;;;;;10.32;4.70;;;;;;;;;;2072179;28;20199;-56
2021/06/23 05:23:33;;;;;;;7.32;4.13;;;;;;;;;;2066804;28;20192;-55
2021/06/23 05:24:33;;;;;;;8.98;4.40;;;;;;;;;;2072238;28;20180;-56
2021/06/23 05:25:33;;;;;;;8.60;4.35;;;;;;;;;;2064399;28;20170;-57
2021/06/23 05:26:34;;;;;;;9.80;4.03;;;;;;;;;;2072392;28;20545;-57
2021/06/23 05:27:34;;;;;;;6.35;3.95;;;;;;;;;;2061890;28;20640;-58
2021/06/23 05:28:34;;;;;;;13.98;4.28;;;;;;;;;;2071155;28;20164;-58
2021/06/23 05:29:35;;;;;;;10.18;4.30;;;;;;;;;;2061769;28;20193;-58
2021/06/23 05:30:35;;;;;;;8.63;3.92;;;;;;;;;;2069531;28;20165;-57
2021/06/23 05:31:35;;;;;;;6.22;3.67;;;;;;;;;;2065061;28;20166;-52
2021/06/23 05:32:36;;;;;;;6.20;4.30;;;;;;;;;;2072591;28;20188;-56
2021/06/23 05:33:36;;;;;;;4.72;3.83;;;;;;;;;;2060167;28;20174;-55
2021/06/23 05:34:37;;;;;;;6.53;4.07;;;;;;;;;;2072081;28;20177;-57
2021/06/23 05:35:37;;;;;;;8.20;3.97;;;;;;;;;;2059298;28;20200;-54
2021/06/23 05:36:37;;;;;;;6.70;3.83;;;;;;;;;;2064301;28;20658;-59
2021/06/23 05:37:37;;;;;;;7.38;4.15;;;;;;;;;;2065394;28;20184;-56
2021/06/23 05:38:38;;;;;;;10.75;4.03;;;;;;;;;;2065545;28;20312;-57
2021/06/23 05:39:38;;;;;;;7.20;3.88;;;;;;;;;;2065014;28;20212;-60
2021/06/23 05:40:39;;;;;;;8.48;3.72;;;;;;;;;;2065047;28;20671;-59
2021/06/23 05:41:39;;;;;;;6.68;3.67;;;;;;;;;;2063825;28;20248;-61
2021/06/23 05:42:39;;;;;;;7.63;3.67;;;;;;;;;;2067102;28;20220;-60
2021/06/23 05:43:40;;;;;;;7.88;3.83;;;;;;;;;;2072376;28;20180;-56
2021/06/23 05:44:41;;;;;;;6.32;3.95;;;;;;;;;;2064508;28;20209;-62
2021/06/23 05:45:42;;;;;;;12.55;3.90;;;;;;;;;;2073267;28;20181;-59
2021/06/23 05:46:42;;;;;;;9.18;3.97;;;;;;;;;;2064013;28;20260;-60
2021/06/23 05:47:42;;;;;;;6.47;3.53;;;;;;;;;;2072352;28;20666;-62
2021/06/23 05:48:42;;;;;;;8.85;3.60;;;;;;;;;;2070130;28;20201;-61
2021/06/23 05:49:43;;;;;;;12.10;4.70;;;;;;;;;;2068159;28;20177;-60
2021/06/23 05:50:44;;;;;;;10.48;4.95;;;;;;;;;;2072989;28;20196;-59
2021/06/23 05:51:45;;;;;;;11.05;4.78;;;;;;;;;;2056435;28;20166;-61
2021/06/23 05:52:45;;;;;;;9.00;6.00;;;;;;;;;;2067546;28;20221;-58
2021/06/23 05:53:45;;;;;;;8.48;4.35;;;;;;;;;;2073466;28;20260;-58
2021/06/23 05:54:45;;;;;;;8.68;4.68;;;;;;;;;;2065113;28;20215;-55
2021/06/23 05:55:46;;;;;;;9.68;6.75;;;;;;;;;;2067018;28;20616;-58
2021/06/23 05:56:46;;;;;;;7.85;4.47;;;;;;;;;;2057100;28;20178;-55
2021/06/23 05:57:53;;;;;;;8.88;3.95;;;;;;;;;;2069101;28;20773;-57
2021/06/23 05:58:54;;;;;;;6.18;3.50;;;;;;;;;;2063531;28;20904;-55
2021/06/23 05:59:54;;;;;;;5.68;3.40;;;;;;;;;;2053839;28;20210;-55
2021/06/23 06:00:54;;;;;;;6.53;3.70;;;;;;;;;;2064500;28;20173;-57
2021/06/23 06:01:55;;;;;;;5.60;3.30;;;;;;;;;;2063899;28;20213;-55
2021/06/23 06:02:55;;;;;;;6.28;4.50;;;;;;;;;;2065317;28;20232;-56
2021/06/23 06:03:55;;;;;;;8.13;3.80;;;;;;;;;;2064746;28;20728;-56
2021/06/23 06:04:55;;;;;;;8.15;3.70;;;;;;;;;;2064543;28;20580;-57
2021/06/23 06:05:56;;;;;;;7.18;3.65;;;;;;;;;;2062571;28;20173;-58
2021/06/23 06:06:56;;;;;;;7.13;3.95;;;;;;;;;;2064076;28;20657;-55
2021/06/23 06:07:56;;;;;;;10.98;4.53;;;;;;;;;;2065286;28;20196;-53
2021/06/23 06:08:56;;;;;;;9.63;5.43;;;;;;;;;;2064381;28;20180;-50
2021/06/23 06:09:57;;;;;;;6.63;3.92;;;;;;;;;;2065054;28;20261;-53
2021/06/23 06:10:57;;;;;;;8.35;5.18;;;;;;;;;;2064356;28;20194;-56
2021/06/23 06:11:57;;;;;;;5.15;3.70;;;;;;;;;;2064319;28;20209;-57
2021/06/23 06:12:58;;;;;;;5.53;4.28;;;;;;;;;;2064760;28;20178;-56
2021/06/23 06:13:58;;;;;;;9.77;5.38;;;;;;;;;;2064322;28;20166;-54
2021/06/23 06:14:58;;;;;;;5.40;3.75;;;;;;;;;;2065909;28;20169;-59
2021/06/23 06:15:58;;;;;;;7.75;4.07;;;;;;;;;;2063606;28;20181;-58